< < Back
Terminal Aerodrome Forecast


Current Version              Previous Versions:   1  2  3  4  5  6  7  8  9  

Terminal Aerodrome Forecast

180
FTUS42 KGSP 230700 AAA
TAFAND
TAF AMD
KAND 230701Z 2307/2406 00000KT 6SM BR BKN018
     FM230900 00000KT 4SM BR BKN012
      TEMPO 2309/2312 00000KT 3SM BR BKN004 BKN015
     FM231300 00000KT 4SM BR BKN012
     FM231400 24004KT P6SM SCT060 PROB30 2319/2324 4SM TSRA
      BKN040CB=

Latest METAR

304
SAUS70 KWBC 231000 RRD
MTRAND
METAR KAND 230956Z AUTO 00000KT 10SM OVC014 22/21 A3010 RMK AO2 SLP181
T02170211


USA.gov is the U.S. government's official web portal to all federal, state and local government web resources and services.